sensor_id;sensor_type;location;lat;lon;timestamp;P1;durP1;ratioP1;P2;durP2;ratioP2
21758;SDS011;11041;50.854;20.580;2024-03-07T00:00:08;31.35;;;18.48;;
21758;SDS011;11041;50.854;20.580;2024-03-07T00:03:03;33.83;;;20.60;;
21758;SDS011;11041;50.854;20.580;2024-03-07T00:06:06;35.55;;;20.20;;
21758;SDS011;11041;50.854;20.580;2024-03-07T00:08:34;36.00;;;19.55;;
21758;SDS011;11041;50.854;20.580;2024-03-07T00:11:00;35.67;;;19.40;;
21758;SDS011;11041;50.854;20.580;2024-03-07T00:13:30;31.05;;;19.38;;
21758;SDS011;11041;50.854;20.580;2024-03-07T00:15:57;29.52;;;17.38;;
21758;SDS011;11041;50.854;20.580;2024-03-07T00:18:24;40.53;;;21.08;;
21758;SDS011;11041;50.854;20.580;2024-03-07T00:20:50;31.25;;;20.38;;
21758;SDS011;11041;50.854;20.580;2024-03-07T00:23:18;36.17;;;21.25;;
21758;SDS011;11041;50.854;20.580;2024-03-07T00:25:44;38.60;;;21.98;;
21758;SDS011;11041;50.854;20.580;2024-03-07T00:28:10;38.50;;;21.08;;
21758;SDS011;11041;50.854;20.580;2024-03-07T00:30:37;43.17;;;21.63;;
21758;SDS011;11041;50.854;20.580;2024-03-07T00:33:04;38.10;;;23.10;;
21758;SDS011;11041;50.854;20.580;2024-03-07T00:35:33;36.17;;;21.48;;
21758;SDS011;11041;50.854;20.580;2024-03-07T00:38:01;35.50;;;20.02;;
21758;SDS011;11041;50.854;20.580;2024-03-07T00:40:29;38.78;;;22.13;;
21758;SDS011;11041;50.854;20.580;2024-03-07T00:42:57;39.88;;;19.98;;
21758;SDS011;11041;50.854;20.580;2024-03-07T00:45:24;34.40;;;19.90;;
21758;SDS011;11041;50.854;20.580;2024-03-07T00:47:51;34.58;;;20.60;;
21758;SDS011;11041;50.854;20.580;2024-03-07T00:50:17;31.92;;;19.88;;
21758;SDS011;11041;50.854;20.580;2024-03-07T00:52:45;32.25;;;18.92;;
21758;SDS011;11041;50.854;20.580;2024-03-07T00:55:14;31.05;;;18.20;;
21758;SDS011;11041;50.854;20.580;2024-03-07T00:57:40;35.40;;;18.15;;
21758;SDS011;11041;50.854;20.580;2024-03-07T01:00:07;32.30;;;17.92;;
21758;SDS011;11041;50.854;20.580;2024-03-07T01:02:42;29.90;;;18.35;;
21758;SDS011;11041;50.854;20.580;2024-03-07T01:05:11;31.10;;;16.92;;
21758;SDS011;11041;50.854;20.580;2024-03-07T01:07:41;28.52;;;16.70;;
21758;SDS011;11041;50.854;20.580;2024-03-07T01:10:08;31.45;;;18.15;;
21758;SDS011;11041;50.854;20.580;2024-03-07T01:12:35;27.52;;;17.23;;
21758;SDS011;11041;50.854;20.580;2024-03-07T01:15:02;31.58;;;18.70;;
21758;SDS011;11041;50.854;20.580;2024-03-07T01:17:32;31.17;;;17.95;;
21758;SDS011;11041;50.854;20.580;2024-03-07T01:19:59;34.85;;;19.23;;
21758;SDS011;11041;50.854;20.580;2024-03-07T01:22:25;30.48;;;18.80;;
21758;SDS011;11041;50.854;20.580;2024-03-07T01:24:52;32.58;;;20.02;;
21758;SDS011;11041;50.854;20.580;2024-03-07T01:27:19;32.25;;;18.88;;
21758;SDS011;11041;50.854;20.580;2024-03-07T01:29:46;31.30;;;18.17;;
21758;SDS011;11041;50.854;20.580;2024-03-07T01:32:12;31.42;;;17.90;;
21758;SDS011;11041;50.854;20.580;2024-03-07T01:34:39;28.05;;;17.20;;
21758;SDS011;11041;50.854;20.580;2024-03-07T01:37:08;30.60;;;18.80;;
21758;SDS011;11041;50.854;20.580;2024-03-07T01:39:36;31.10;;;19.60;;
21758;SDS011;11041;50.854;20.580;2024-03-07T01:42:02;32.92;;;19.30;;
21758;SDS011;11041;50.854;20.580;2024-03-07T01:44:30;32.22;;;18.20;;
21758;SDS011;11041;50.854;20.580;2024-03-07T01:46:58;33.28;;;17.58;;
21758;SDS011;11041;50.854;20.580;2024-03-07T01:49:31;34.70;;;18.63;;
21758;SDS011;11041;50.854;20.580;2024-03-07T01:51:58;34.03;;;18.33;;
21758;SDS011;11041;50.854;20.580;2024-03-07T01:54:30;34.17;;;18.85;;
21758;SDS011;11041;50.854;20.580;2024-03-07T01:56:58;30.90;;;18.55;;
21758;SDS011;11041;50.854;20.580;2024-03-07T01:59:30;35.95;;;19.75;;
21758;SDS011;11041;50.854;20.580;2024-03-07T02:01:58;36.83;;;20.05;;
21758;SDS011;11041;50.854;20.580;2024-03-07T02:04:27;35.15;;;19.30;;
21758;SDS011;11041;50.854;20.580;2024-03-07T02:06:55;33.65;;;20.17;;
21758;SDS011;11041;50.854;20.580;2024-03-07T02:09:24;42.65;;;19.95;;
21758;SDS011;11041;50.854;20.580;2024-03-07T02:11:53;35.92;;;21.33;;
21758;SDS011;11041;50.854;20.580;2024-03-07T02:14:19;35.78;;;21.13;;
21758;SDS011;11041;50.854;20.580;2024-03-07T02:16:46;36.88;;;20.55;;
21758;SDS011;11041;50.854;20.580;2024-03-07T02:19:14;34.85;;;20.70;;
21758;SDS011;11041;50.854;20.580;2024-03-07T02:21:45;41.13;;;20.00;;
21758;SDS011;11041;50.854;20.580;2024-03-07T02:24:11;33.40;;;19.88;;
21758;SDS011;11041;50.854;20.580;2024-03-07T02:26:39;35.50;;;20.23;;
21758;SDS011;11041;50.854;20.580;2024-03-07T02:29:06;32.58;;;19.25;;
21758;SDS011;11041;50.854;20.580;2024-03-07T02:31:36;35.30;;;19.98;;
21758;SDS011;11041;50.854;20.580;2024-03-07T02:34:03;35.80;;;20.30;;
21758;SDS011;11041;50.854;20.580;2024-03-07T02:36:32;34.40;;;18.33;;
21758;SDS011;11041;50.854;20.580;2024-03-07T02:38:59;34.22;;;20.45;;
21758;SDS011;11041;50.854;20.580;2024-03-07T02:41:28;33.60;;;19.58;;
21758;SDS011;11041;50.854;20.580;2024-03-07T02:43:58;28.63;;;14.52;;
21758;SDS011;11041;50.854;20.580;2024-03-07T02:46:27;36.75;;;20.98;;
21758;SDS011;11041;50.854;20.580;2024-03-07T02:48:54;26.83;;;16.13;;
21758;SDS011;11041;50.854;20.580;2024-03-07T02:51:20;34.88;;;19.52;;
21758;SDS011;11041;50.854;20.580;2024-03-07T02:53:47;33.25;;;19.38;;
21758;SDS011;11041;50.854;20.580;2024-03-07T02:56:13;35.72;;;20.42;;
21758;SDS011;11041;50.854;20.580;2024-03-07T02:58:39;34.05;;;19.92;;
21758;SDS011;11041;50.854;20.580;2024-03-07T03:01:06;35.83;;;18.73;;
21758;SDS011;11041;50.854;20.580;2024-03-07T03:03:32;32.38;;;19.50;;
21758;SDS011;11041;50.854;20.580;2024-03-07T03:05:59;36.47;;;21.58;;
21758;SDS011;11041;50.854;20.580;2024-03-07T03:08:28;37.03;;;20.83;;
21758;SDS011;11041;50.854;20.580;2024-03-07T03:10:55;36.88;;;21.48;;
21758;SDS011;11041;50.854;20.580;2024-03-07T03:13:23;37.03;;;20.05;;
21758;SDS011;11041;50.854;20.580;2024-03-07T03:15:56;33.95;;;20.23;;
21758;SDS011;11041;50.854;20.580;2024-03-07T03:18:23;41.17;;;21.73;;
21758;SDS011;11041;50.854;20.580;2024-03-07T03:20:50;36.25;;;21.17;;
21758;SDS011;11041;50.854;20.580;2024-03-07T03:23:18;35.03;;;20.55;;
21758;SDS011;11041;50.854;20.580;2024-03-07T03:25:46;28.33;;;18.52;;
21758;SDS011;11041;50.854;20.580;2024-03-07T03:28:13;37.08;;;23.23;;
21758;SDS011;11041;50.854;20.580;2024-03-07T03:30:42;37.58;;;22.40;;
21758;SDS011;11041;50.854;20.580;2024-03-07T03:33:11;37.13;;;22.55;;
21758;SDS011;11041;50.854;20.580;2024-03-07T03:35:37;41.95;;;22.83;;
21758;SDS011;11041;50.854;20.580;2024-03-07T03:38:05;38.88;;;21.55;;
21758;SDS011;11041;50.854;20.580;2024-03-07T03:40:33;42.03;;;23.23;;
21758;SDS011;11041;50.854;20.580;2024-03-07T03:43:00;43.30;;;22.65;;
21758;SDS011;11041;50.854;20.580;2024-03-07T03:45:27;44.60;;;24.27;;
21758;SDS011;11041;50.854;20.580;2024-03-07T03:47:54;36.78;;;21.88;;
21758;SDS011;11041;50.854;20.580;2024-03-07T03:50:24;36.65;;;21.27;;
21758;SDS011;11041;50.854;20.580;2024-03-07T03:52:50;42.00;;;23.08;;
21758;SDS011;11041;50.854;20.580;2024-03-07T03:55:23;42.33;;;21.75;;
21758;SDS011;11041;50.854;20.580;2024-03-07T03:57:50;50.75;;;24.33;;
21758;SDS011;11041;50.854;20.580;2024-03-07T04:00:17;46.55;;;26.15;;
21758;SDS011;11041;50.854;20.580;2024-03-07T04:02:45;45.92;;;24.85;;
21758;SDS011;11041;50.854;20.580;2024-03-07T04:05:18;40.67;;;23.90;;
21758;SDS011;11041;50.854;20.580;2024-03-07T04:07:47;38.60;;;20.05;;
21758;SDS011;11041;50.854;20.580;2024-03-07T04:10:16;43.28;;;23.25;;
21758;SDS011;11041;50.854;20.580;2024-03-07T04:12:43;42.72;;;22.83;;
21758;SDS011;11041;50.854;20.580;2024-03-07T04:15:13;45.10;;;23.58;;
21758;SDS011;11041;50.854;20.580;2024-03-07T04:17:43;46.55;;;23.58;;
21758;SDS011;11041;50.854;20.580;2024-03-07T04:20:13;40.35;;;22.00;;
21758;SDS011;11041;50.854;20.580;2024-03-07T04:22:42;43.63;;;22.65;;
21758;SDS011;11041;50.854;20.580;2024-03-07T04:25:11;44.78;;;25.05;;
21758;SDS011;11041;50.854;20.580;2024-03-07T04:27:38;39.30;;;23.10;;
21758;SDS011;11041;50.854;20.580;2024-03-07T04:30:06;39.38;;;22.23;;
21758;SDS011;11041;50.854;20.580;2024-03-07T04:32:37;39.75;;;23.50;;
21758;SDS011;11041;50.854;20.580;2024-03-07T04:35:04;39.50;;;21.80;;
21758;SDS011;11041;50.854;20.580;2024-03-07T04:37:39;46.60;;;23.73;;
21758;SDS011;11041;50.854;20.580;2024-03-07T04:40:09;42.55;;;23.23;;
21758;SDS011;11041;50.854;20.580;2024-03-07T04:42:44;45.13;;;23.10;;
21758;SDS011;11041;50.854;20.580;2024-03-07T04:45:15;45.13;;;25.25;;
21758;SDS011;11041;50.854;20.580;2024-03-07T04:47:42;44.25;;;23.58;;
21758;SDS011;11041;50.854;20.580;2024-03-07T04:50:10;36.90;;;23.13;;
21758;SDS011;11041;50.854;20.580;2024-03-07T04:52:38;33.88;;;17.88;;
21758;SDS011;11041;50.854;20.580;2024-03-07T04:55:05;41.10;;;23.85;;
21758;SDS011;11041;50.854;20.580;2024-03-07T04:57:38;40.50;;;23.88;;
21758;SDS011;11041;50.854;20.580;2024-03-07T05:00:07;35.50;;;21.90;;
21758;SDS011;11041;50.854;20.580;2024-03-07T05:02:40;41.75;;;22.80;;
21758;SDS011;11041;50.854;20.580;2024-03-07T05:05:07;42.15;;;22.45;;
21758;SDS011;11041;50.854;20.580;2024-03-07T05:07:33;39.03;;;21.55;;
21758;SDS011;11041;50.854;20.580;2024-03-07T05:10:02;38.45;;;22.48;;
21758;SDS011;11041;50.854;20.580;2024-03-07T05:12:30;37.92;;;23.05;;
21758;SDS011;11041;50.854;20.580;2024-03-07T05:14:57;60.83;;;30.52;;
21758;SDS011;11041;50.854;20.580;2024-03-07T05:17:24;54.05;;;27.98;;
21758;SDS011;11041;50.854;20.580;2024-03-07T05:19:51;44.03;;;26.17;;
21758;SDS011;11041;50.854;20.580;2024-03-07T05:22:21;40.72;;;23.63;;
21758;SDS011;11041;50.854;20.580;2024-03-07T05:24:51;45.35;;;25.55;;
21758;SDS011;11041;50.854;20.580;2024-03-07T05:27:21;36.50;;;21.98;;
21758;SDS011;11041;50.854;20.580;2024-03-07T05:29:47;37.72;;;22.02;;
21758;SDS011;11041;50.854;20.580;2024-03-07T05:32:20;39.20;;;23.08;;
21758;SDS011;11041;50.854;20.580;2024-03-07T05:34:51;44.58;;;23.17;;
21758;SDS011;11041;50.854;20.580;2024-03-07T05:37:21;39.90;;;22.45;;
21758;SDS011;11041;50.854;20.580;2024-03-07T05:39:49;42.22;;;21.52;;
21758;SDS011;11041;50.854;20.580;2024-03-07T05:42:16;37.78;;;22.58;;
21758;SDS011;11041;50.854;20.580;2024-03-07T05:44:46;36.72;;;21.65;;
21758;SDS011;11041;50.854;20.580;2024-03-07T05:47:13;36.95;;;21.63;;
21758;SDS011;11041;50.854;20.580;2024-03-07T05:49:42;35.20;;;20.02;;
21758;SDS011;11041;50.854;20.580;2024-03-07T05:52:11;39.35;;;22.50;;
21758;SDS011;11041;50.854;20.580;2024-03-07T05:54:40;39.67;;;21.10;;
21758;SDS011;11041;50.854;20.580;2024-03-07T05:57:06;36.80;;;20.63;;
21758;SDS011;11041;50.854;20.580;2024-03-07T05:59:36;38.42;;;22.42;;
21758;SDS011;11041;50.854;20.580;2024-03-07T06:02:04;33.92;;;19.95;;
21758;SDS011;11041;50.854;20.580;2024-03-07T06:04:31;34.65;;;20.70;;
21758;SDS011;11041;50.854;20.580;2024-03-07T06:07:01;35.90;;;20.15;;
21758;SDS011;11041;50.854;20.580;2024-03-07T06:09:31;33.05;;;20.20;;
21758;SDS011;11041;50.854;20.580;2024-03-07T06:11:59;35.50;;;19.38;;
21758;SDS011;11041;50.854;20.580;2024-03-07T06:14:29;37.42;;;21.58;;
21758;SDS011;11041;50.854;20.580;2024-03-07T06:16:56;33.67;;;20.38;;
21758;SDS011;11041;50.854;20.580;2024-03-07T06:19:24;32.40;;;19.60;;
21758;SDS011;11041;50.854;20.580;2024-03-07T06:21:52;43.45;;;21.55;;
21758;SDS011;11041;50.854;20.580;2024-03-07T06:24:22;34.10;;;21.20;;
21758;SDS011;11041;50.854;20.580;2024-03-07T06:26:49;34.08;;;20.60;;
21758;SDS011;11041;50.854;20.580;2024-03-07T06:29:29;35.08;;;20.92;;
21758;SDS011;11041;50.854;20.580;2024-03-07T06:31:58;34.80;;;20.63;;
21758;SDS011;11041;50.854;20.580;2024-03-07T06:34:26;33.65;;;19.98;;
21758;SDS011;11041;50.854;20.580;2024-03-07T06:36:54;31.42;;;19.15;;
21758;SDS011;11041;50.854;20.580;2024-03-07T06:39:21;31.95;;;20.10;;
21758;SDS011;11041;50.854;20.580;2024-03-07T06:41:47;35.63;;;20.70;;
21758;SDS011;11041;50.854;20.580;2024-03-07T06:44:14;34.60;;;20.60;;
21758;SDS011;11041;50.854;20.580;2024-03-07T06:46:41;33.92;;;19.40;;
21758;SDS011;11041;50.854;20.580;2024-03-07T06:49:09;38.13;;;20.60;;
21758;SDS011;11041;50.854;20.580;2024-03-07T06:51:38;33.10;;;20.10;;
21758;SDS011;11041;50.854;20.580;2024-03-07T06:54:08;33.78;;;19.98;;
21758;SDS011;11041;50.854;20.580;2024-03-07T06:56:38;34.35;;;19.15;;
21758;SDS011;11041;50.854;20.580;2024-03-07T06:59:11;32.33;;;20.25;;
21758;SDS011;11041;50.854;20.580;2024-03-07T07:01:40;30.83;;;19.35;;
21758;SDS011;11041;50.854;20.580;2024-03-07T07:04:10;34.85;;;19.80;;
21758;SDS011;11041;50.854;20.580;2024-03-07T07:06:40;34.50;;;20.08;;
21758;SDS011;11041;50.854;20.580;2024-03-07T07:09:08;34.20;;;18.85;;
21758;SDS011;11041;50.854;20.580;2024-03-07T07:11:36;38.67;;;20.92;;
21758;SDS011;11041;50.854;20.580;2024-03-07T07:14:04;38.20;;;20.52;;
21758;SDS011;11041;50.854;20.580;2024-03-07T07:16:32;34.42;;;20.90;;
21758;SDS011;11041;50.854;20.580;2024-03-07T07:19:06;35.42;;;21.13;;
21758;SDS011;11041;50.854;20.580;2024-03-07T07:21:32;34.20;;;20.08;;
21758;SDS011;11041;50.854;20.580;2024-03-07T07:24:01;33.78;;;20.48;;
21758;SDS011;11041;50.854;20.580;2024-03-07T07:26:28;33.97;;;19.95;;
21758;SDS011;11041;50.854;20.580;2024-03-07T07:28:54;36.55;;;20.23;;
21758;SDS011;11041;50.854;20.580;2024-03-07T07:31:23;35.25;;;20.35;;
21758;SDS011;11041;50.854;20.580;2024-03-07T07:33:50;32.38;;;19.08;;
21758;SDS011;11041;50.854;20.580;2024-03-07T07:36:18;32.78;;;19.60;;
21758;SDS011;11041;50.854;20.580;2024-03-07T07:38:47;34.72;;;21.77;;
21758;SDS011;11041;50.854;20.580;2024-03-07T07:41:13;39.15;;;18.58;;
21758;SDS011;11041;50.854;20.580;2024-03-07T07:43:42;39.45;;;20.05;;
21758;SDS011;11041;50.854;20.580;2024-03-07T07:46:09;35.90;;;19.90;;
21758;SDS011;11041;50.854;20.580;2024-03-07T07:48:36;34.22;;;20.05;;
21758;SDS011;11041;50.854;20.580;2024-03-07T07:51:03;38.53;;;20.17;;
21758;SDS011;11041;50.854;20.580;2024-03-07T07:53:32;37.55;;;20.42;;
21758;SDS011;11041;50.854;20.580;2024-03-07T07:56:00;37.13;;;19.10;;
21758;SDS011;11041;50.854;20.580;2024-03-07T07:58:27;39.47;;;19.27;;
21758;SDS011;11041;50.854;20.580;2024-03-07T08:00:53;30.45;;;18.98;;
21758;SDS011;11041;50.854;20.580;2024-03-07T08:03:20;30.73;;;18.80;;
21758;SDS011;11041;50.854;20.580;2024-03-07T08:05:48;31.80;;;18.63;;
21758;SDS011;11041;50.854;20.580;2024-03-07T08:08:15;29.02;;;15.90;;
21758;SDS011;11041;50.854;20.580;2024-03-07T08:10:43;32.20;;;18.55;;
21758;SDS011;11041;50.854;20.580;2024-03-07T08:13:11;30.65;;;19.10;;
21758;SDS011;11041;50.854;20.580;2024-03-07T08:15:39;31.00;;;18.80;;
21758;SDS011;11041;50.854;20.580;2024-03-07T08:18:11;30.30;;;20.13;;
21758;SDS011;11041;50.854;20.580;2024-03-07T08:20:38;34.17;;;19.67;;
21758;SDS011;11041;50.854;20.580;2024-03-07T08:23:08;28.80;;;18.42;;
21758;SDS011;11041;50.854;20.580;2024-03-07T08:25:35;29.60;;;19.10;;
21758;SDS011;11041;50.854;20.580;2024-03-07T08:28:02;27.13;;;15.45;;
21758;SDS011;11041;50.854;20.580;2024-03-07T08:30:31;33.88;;;18.38;;
21758;SDS011;11041;50.854;20.580;2024-03-07T08:32:58;33.20;;;20.08;;
21758;SDS011;11041;50.854;20.580;2024-03-07T08:35:27;34.08;;;19.80;;
21758;SDS011;11041;50.854;20.580;2024-03-07T08:37:57;33.47;;;19.35;;
21758;SDS011;11041;50.854;20.580;2024-03-07T08:40:28;26.85;;;17.70;;
21758;SDS011;11041;50.854;20.580;2024-03-07T08:42:59;34.75;;;20.88;;
21758;SDS011;11041;50.854;20.580;2024-03-07T08:45:27;34.83;;;20.58;;
21758;SDS011;11041;50.854;20.580;2024-03-07T08:47:55;33.03;;;17.55;;
21758;SDS011;11041;50.854;20.580;2024-03-07T08:50:23;32.80;;;19.27;;
21758;SDS011;11041;50.854;20.580;2024-03-07T08:52:51;30.60;;;18.88;;
21758;SDS011;11041;50.854;20.580;2024-03-07T08:55:24;36.55;;;21.35;;
21758;SDS011;11041;50.854;20.580;2024-03-07T08:57:52;35.70;;;21.15;;
21758;SDS011;11041;50.854;20.580;2024-03-07T09:00:19;32.05;;;18.25;;
21758;SDS011;11041;50.854;20.580;2024-03-07T09:02:53;35.55;;;21.20;;
21758;SDS011;11041;50.854;20.580;2024-03-07T09:05:25;33.40;;;18.60;;
21758;SDS011;11041;50.854;20.580;2024-03-07T09:07:55;37.38;;;21.02;;
21758;SDS011;11041;50.854;20.580;2024-03-07T09:10:23;34.10;;;20.20;;
21758;SDS011;11041;50.854;20.580;2024-03-07T09:12:51;35.10;;;18.50;;
21758;SDS011;11041;50.854;20.580;2024-03-07T09:15:18;33.25;;;19.58;;
21758;SDS011;11041;50.854;20.580;2024-03-07T09:17:47;39.55;;;23.02;;
21758;SDS011;11041;50.854;20.580;2024-03-07T09:20:15;33.03;;;20.38;;
21758;SDS011;11041;50.854;20.580;2024-03-07T09:22:45;35.72;;;19.20;;
21758;SDS011;11041;50.854;20.580;2024-03-07T09:25:16;31.77;;;18.60;;
21758;SDS011;11041;50.854;20.580;2024-03-07T09:27:44;35.90;;;20.10;;
21758;SDS011;11041;50.854;20.580;2024-03-07T09:30:11;32.88;;;19.50;;
21758;SDS011;11041;50.854;20.580;2024-03-07T09:32:39;39.75;;;23.58;;
21758;SDS011;11041;50.854;20.580;2024-03-07T09:35:10;33.55;;;19.08;;
21758;SDS011;11041;50.854;20.580;2024-03-07T09:37:41;30.58;;;18.40;;
21758;SDS011;11041;50.854;20.580;2024-03-07T09:40:08;36.22;;;20.23;;
21758;SDS011;11041;50.854;20.580;2024-03-07T09:42:43;34.17;;;18.58;;
21758;SDS011;11041;50.854;20.580;2024-03-07T09:45:14;38.33;;;19.95;;
21758;SDS011;11041;50.854;20.580;2024-03-07T09:47:49;34.25;;;20.15;;
21758;SDS011;11041;50.854;20.580;2024-03-07T09:50:21;46.55;;;25.75;;
21758;SDS011;11041;50.854;20.580;2024-03-07T09:52:53;31.80;;;18.67;;
21758;SDS011;11041;50.854;20.580;2024-03-07T09:55:22;29.98;;;18.10;;
21758;SDS011;11041;50.854;20.580;2024-03-07T09:57:50;29.50;;;17.63;;
21758;SDS011;11041;50.854;20.580;2024-03-07T10:00:18;32.20;;;19.02;;
21758;SDS011;11041;50.854;20.580;2024-03-07T10:02:53;29.25;;;18.48;;
21758;SDS011;11041;50.854;20.580;2024-03-07T10:05:33;32.50;;;16.95;;
21758;SDS011;11041;50.854;20.580;2024-03-07T10:08:00;31.15;;;18.20;;
21758;SDS011;11041;50.854;20.580;2024-03-07T10:10:29;29.63;;;18.38;;
21758;SDS011;11041;50.854;20.580;2024-03-07T10:12:57;31.25;;;18.40;;
21758;SDS011;11041;50.854;20.580;2024-03-07T10:15:33;32.05;;;18.88;;
21758;SDS011;11041;50.854;20.580;2024-03-07T10:18:08;30.33;;;17.88;;
21758;SDS011;11041;50.854;20.580;2024-03-07T10:20:36;27.00;;;17.65;;
21758;SDS011;11041;50.854;20.580;2024-03-07T10:23:05;27.45;;;16.98;;
21758;SDS011;11041;50.854;20.580;2024-03-07T10:25:33;28.63;;;17.88;;
21758;SDS011;11041;50.854;20.580;2024-03-07T10:28:00;30.65;;;18.52;;
21758;SDS011;11041;50.854;20.580;2024-03-07T10:30:29;31.95;;;18.45;;
21758;SDS011;11041;50.854;20.580;2024-03-07T10:33:06;32.40;;;19.17;;
21758;SDS011;11041;50.854;20.580;2024-03-07T10:35:33;38.78;;;20.98;;
21758;SDS011;11041;50.854;20.580;2024-03-07T10:38:00;24.05;;;14.75;;
21758;SDS011;11041;50.854;20.580;2024-03-07T10:40:31;31.13;;;18.77;;
21758;SDS011;11041;50.854;20.580;2024-03-07T10:43:02;27.70;;;16.42;;
21758;SDS011;11041;50.854;20.580;2024-03-07T10:45:37;31.17;;;16.65;;
21758;SDS011;11041;50.854;20.580;2024-03-07T10:48:13;32.20;;;19.33;;
21758;SDS011;11041;50.854;20.580;2024-03-07T11:00:00;25.42;;;16.23;;
21758;SDS011;11041;50.854;20.580;2024-03-07T11:02:49;30.58;;;18.75;;
21758;SDS011;11041;50.854;20.580;2024-03-07T11:05:24;26.15;;;17.20;;
21758;SDS011;11041;50.854;20.580;2024-03-07T11:07:59;26.02;;;15.15;;
21758;SDS011;11041;50.854;20.580;2024-03-07T11:10:51;28.65;;;15.80;;
21758;SDS011;11041;50.854;20.580;2024-03-07T11:13:19;28.73;;;16.80;;
21758;SDS011;11041;50.854;20.580;2024-03-07T11:15:46;23.90;;;16.33;;
21758;SDS011;11041;50.854;20.580;2024-03-07T11:18:17;27.92;;;17.27;;
21758;SDS011;11041;50.854;20.580;2024-03-07T11:20:43;33.20;;;17.27;;
21758;SDS011;11041;50.854;20.580;2024-03-07T11:26:07;26.38;;;16.58;;
21758;SDS011;11041;50.854;20.580;2024-03-07T11:28:40;30.25;;;18.95;;
21758;SDS011;11041;50.854;20.580;2024-03-07T11:31:12;26.20;;;14.68;;
21758;SDS011;11041;50.854;20.580;2024-03-07T11:34:15;22.45;;;15.05;;
21758;SDS011;11041;50.854;20.580;2024-03-07T11:36:48;22.73;;;15.65;;
21758;SDS011;11041;50.854;20.580;2024-03-07T11:39:40;29.58;;;17.55;;
21758;SDS011;11041;50.854;20.580;2024-03-07T11:42:09;29.70;;;16.25;;
21758;SDS011;11041;50.854;20.580;2024-03-07T11:44:52;23.20;;;14.32;;
21758;SDS011;11041;50.854;20.580;2024-03-07T11:47:23;24.67;;;15.02;;
21758;SDS011;11041;50.854;20.580;2024-03-07T11:50:02;26.55;;;13.93;;
21758;SDS011;11041;50.854;20.580;2024-03-07T11:52:34;25.98;;;16.05;;
21758;SDS011;11041;50.854;20.580;2024-03-07T11:55:02;22.95;;;14.77;;
21758;SDS011;11041;50.854;20.580;2024-03-07T11:57:29;22.30;;;14.55;;
21758;SDS011;11041;50.854;20.580;2024-03-07T11:59:59;22.33;;;13.80;;
21758;SDS011;11041;50.854;20.580;2024-03-07T12:02:33;20.98;;;13.25;;
21758;SDS011;11041;50.854;20.580;2024-03-07T12:05:03;20.70;;;12.75;;
21758;SDS011;11041;50.854;20.580;2024-03-07T12:07:33;22.40;;;13.57;;
21758;SDS011;11041;50.854;20.580;2024-03-07T12:10:01;18.38;;;12.73;;
21758;SDS011;11041;50.854;20.580;2024-03-07T12:12:32;17.23;;;11.80;;
21758;SDS011;11041;50.854;20.580;2024-03-07T12:14:59;20.23;;;13.10;;
21758;SDS011;11041;50.854;20.580;2024-03-07T12:17:35;17.73;;;11.52;;
21758;SDS011;11041;50.854;20.580;2024-03-07T12:20:01;23.42;;;14.02;;
21758;SDS011;11041;50.854;20.580;2024-03-07T12:22:54;18.95;;;12.60;;
21758;SDS011;11041;50.854;20.580;2024-03-07T12:25:29;18.30;;;12.85;;
21758;SDS011;11041;50.854;20.580;2024-03-07T12:28:03;19.27;;;12.50;;
21758;SDS011;11041;50.854;20.580;2024-03-07T12:30:34;20.60;;;13.38;;
21758;SDS011;11041;50.854;20.580;2024-03-07T12:33:13;19.90;;;13.85;;
21758;SDS011;11041;50.854;20.580;2024-03-07T12:35:40;24.10;;;14.40;;
21758;SDS011;11041;50.854;20.580;2024-03-07T12:38:10;19.20;;;12.43;;
21758;SDS011;11041;50.854;20.580;2024-03-07T12:40:38;20.17;;;12.85;;
21758;SDS011;11041;50.854;20.580;2024-03-07T12:43:21;19.73;;;12.82;;
21758;SDS011;11041;50.854;20.580;2024-03-07T12:45:51;25.45;;;14.52;;
21758;SDS011;11041;50.854;20.580;2024-03-07T12:48:25;24.85;;;12.38;;
21758;SDS011;11041;50.854;20.580;2024-03-07T12:50:53;18.38;;;13.07;;
21758;SDS011;11041;50.854;20.580;2024-03-07T12:53:21;21.05;;;13.10;;
21758;SDS011;11041;50.854;20.580;2024-03-07T12:55:49;20.90;;;13.50;;
21758;SDS011;11041;50.854;20.580;2024-03-07T12:58:18;17.42;;;12.35;;
21758;SDS011;11041;50.854;20.580;2024-03-07T13:00:54;18.23;;;13.55;;
21758;SDS011;11041;50.854;20.580;2024-03-07T13:03:21;22.98;;;14.05;;
21758;SDS011;11041;50.854;20.580;2024-03-07T13:05:59;23.13;;;14.15;;
21758;SDS011;11041;50.854;20.580;2024-03-07T13:08:30;26.77;;;16.77;;
21758;SDS011;11041;50.854;20.580;2024-03-07T13:10:57;22.00;;;13.50;;
21758;SDS011;11041;50.854;20.580;2024-03-07T13:13:25;21.65;;;13.68;;
21758;SDS011;11041;50.854;20.580;2024-03-07T13:15:52;18.98;;;12.30;;
21758;SDS011;11041;50.854;20.580;2024-03-07T13:18:20;19.90;;;13.57;;
21758;SDS011;11041;50.854;20.580;2024-03-07T13:20:47;21.15;;;11.45;;
21758;SDS011;11041;50.854;20.580;2024-03-07T13:23:14;21.65;;;13.80;;
21758;SDS011;11041;50.854;20.580;2024-03-07T13:25:41;23.27;;;14.05;;
21758;SDS011;11041;50.854;20.580;2024-03-07T13:28:08;18.55;;;13.50;;
21758;SDS011;11041;50.854;20.580;2024-03-07T13:30:49;21.77;;;13.82;;
21758;SDS011;11041;50.854;20.580;2024-03-07T13:33:21;24.52;;;12.77;;
21758;SDS011;11041;50.854;20.580;2024-03-07T13:35:49;15.95;;;11.32;;
21758;SDS011;11041;50.854;20.580;2024-03-07T13:38:17;20.17;;;13.57;;
21758;SDS011;11041;50.854;20.580;2024-03-07T13:40:44;20.50;;;13.27;;
21758;SDS011;11041;50.854;20.580;2024-03-07T13:43:10;19.70;;;13.32;;
21758;SDS011;11041;50.854;20.580;2024-03-07T13:45:37;21.55;;;13.50;;
21758;SDS011;11041;50.854;20.580;2024-03-07T13:48:09;23.70;;;15.60;;
21758;SDS011;11041;50.854;20.580;2024-03-07T13:50:42;25.08;;;14.70;;
21758;SDS011;11041;50.854;20.580;2024-03-07T13:53:14;21.00;;;14.02;;
21758;SDS011;11041;50.854;20.580;2024-03-07T14:01:20;23.08;;;14.73;;
21758;SDS011;11041;50.854;20.580;2024-03-07T14:30:09;22.13;;;14.25;;
21758;SDS011;11041;50.854;20.580;2024-03-07T14:32:55;23.02;;;15.82;;
21758;SDS011;11041;50.854;20.580;2024-03-07T14:41:06;19.25;;;13.02;;
21758;SDS011;11041;50.854;20.580;2024-03-07T14:43:38;23.27;;;16.00;;
21758;SDS011;11041;50.854;20.580;2024-03-07T14:46:07;26.55;;;17.05;;
21758;SDS011;11041;50.854;20.580;2024-03-07T14:48:38;26.58;;;15.93;;
21758;SDS011;11041;50.854;20.580;2024-03-07T14:51:06;25.48;;;17.15;;
21758;SDS011;11041;50.854;20.580;2024-03-07T14:53:42;24.08;;;15.82;;
21758;SDS011;11041;50.854;20.580;2024-03-07T14:56:09;26.10;;;16.42;;
21758;SDS011;11041;50.854;20.580;2024-03-07T14:58:37;24.23;;;14.65;;
21758;SDS011;11041;50.854;20.580;2024-03-07T15:01:07;26.13;;;16.30;;
21758;SDS011;11041;50.854;20.580;2024-03-07T15:03:34;27.13;;;17.33;;
21758;SDS011;11041;50.854;20.580;2024-03-07T15:06:03;23.52;;;14.82;;
21758;SDS011;11041;50.854;20.580;2024-03-07T15:08:33;23.30;;;16.38;;
21758;SDS011;11041;50.854;20.580;2024-03-07T15:11:15;28.95;;;17.02;;